sensor_id;sensor_type;location;lat;lon;timestamp;P1;durP1;ratioP1;P2;durP2;ratioP2
3085;SDS011;52812;48.960;9.108;2022-10-20T00:00:22;16.73;;;10.60;;
3085;SDS011;52812;48.960;9.108;2022-10-20T00:02:48;18.80;;;11.10;;
3085;SDS011;52812;48.960;9.108;2022-10-20T00:05:13;14.70;;;10.20;;
3085;SDS011;52812;48.960;9.108;2022-10-20T00:07:39;17.53;;;10.60;;
3085;SDS011;52812;48.960;9.108;2022-10-20T00:10:05;16.33;;;10.80;;
3085;SDS011;52812;48.960;9.108;2022-10-20T00:12:30;17.60;;;10.30;;
3085;SDS011;52812;48.960;9.108;2022-10-20T00:14:56;17.73;;;11.30;;
3085;SDS011;52812;48.960;9.108;2022-10-20T00:17:22;17.83;;;11.07;;
3085;SDS011;52812;48.960;9.108;2022-10-20T00:19:47;17.47;;;10.70;;
3085;SDS011;52812;48.960;9.108;2022-10-20T00:22:13;19.70;;;10.90;;
3085;SDS011;52812;48.960;9.108;2022-10-20T00:24:39;15.33;;;9.90;;
3085;SDS011;52812;48.960;9.108;2022-10-20T00:27:04;16.10;;;9.90;;
3085;SDS011;52812;48.960;9.108;2022-10-20T00:29:30;17.27;;;10.70;;
3085;SDS011;52812;48.960;9.108;2022-10-20T00:31:55;17.23;;;10.33;;
3085;SDS011;52812;48.960;9.108;2022-10-20T00:34:21;17.60;;;11.10;;
3085;SDS011;52812;48.960;9.108;2022-10-20T00:36:47;18.90;;;11.40;;
3085;SDS011;52812;48.960;9.108;2022-10-20T00:39:12;19.67;;;11.07;;
3085;SDS011;52812;48.960;9.108;2022-10-20T00:41:38;20.73;;;11.30;;
3085;SDS011;52812;48.960;9.108;2022-10-20T00:47:31;17.13;;;11.43;;
3085;SDS011;52812;48.960;9.108;2022-10-20T00:49:52;19.83;;;11.13;;
3085;SDS011;52812;48.960;9.108;2022-10-20T00:52:23;16.27;;;10.83;;
3085;SDS011;52812;48.960;9.108;2022-10-20T00:54:48;15.97;;;10.87;;
3085;SDS011;52812;48.960;9.108;2022-10-20T00:57:14;19.30;;;11.47;;
3085;SDS011;52812;48.960;9.108;2022-10-20T00:59:41;24.30;;;11.20;;
3085;SDS011;52812;48.960;9.108;2022-10-20T01:02:07;16.47;;;10.77;;
3085;SDS011;52812;48.960;9.108;2022-10-20T01:04:34;19.73;;;11.20;;
3085;SDS011;52812;48.960;9.108;2022-10-20T01:07:01;19.00;;;11.50;;
3085;SDS011;52812;48.960;9.108;2022-10-20T01:09:27;23.17;;;11.80;;
3085;SDS011;52812;48.960;9.108;2022-10-20T01:25:32;18.47;;;10.80;;
3085;SDS011;52812;48.960;9.108;2022-10-20T01:31:16;20.07;;;11.40;;
3085;SDS011;52812;48.960;9.108;2022-10-20T01:34:03;16.03;;;10.57;;
3085;SDS011;52812;48.960;9.108;2022-10-20T01:36:43;17.80;;;12.03;;
3085;SDS011;52812;48.960;9.108;2022-10-20T01:39:16;19.80;;;11.70;;
3085;SDS011;52812;48.960;9.108;2022-10-20T01:41:53;20.70;;;11.43;;
3085;SDS011;52812;48.960;9.108;2022-10-20T01:44:24;19.97;;;12.07;;
3085;SDS011;52812;48.960;9.108;2022-10-20T01:46:52;19.20;;;11.20;;
3085;SDS011;52812;48.960;9.108;2022-10-20T01:49:25;18.73;;;10.70;;
3085;SDS011;52812;48.960;9.108;2022-10-20T01:51:51;22.87;;;11.77;;
3085;SDS011;52812;48.960;9.108;2022-10-20T01:54:28;18.10;;;12.07;;
3085;SDS011;52812;48.960;9.108;2022-10-20T01:57:17;18.80;;;12.17;;
3085;SDS011;52812;48.960;9.108;2022-10-20T02:00:06;21.60;;;11.30;;
3085;SDS011;52812;48.960;9.108;2022-10-20T02:11:04;18.57;;;11.03;;
3085;SDS011;52812;48.960;9.108;2022-10-20T02:13:31;25.67;;;12.30;;
3085;SDS011;52812;48.960;9.108;2022-10-20T02:16:01;17.47;;;10.90;;
3085;SDS011;52812;48.960;9.108;2022-10-20T02:18:34;17.13;;;10.77;;
3085;SDS011;52812;48.960;9.108;2022-10-20T02:21:05;19.83;;;11.77;;
3085;SDS011;52812;48.960;9.108;2022-10-20T02:23:33;18.87;;;11.63;;
3085;SDS011;52812;48.960;9.108;2022-10-20T02:26:01;18.73;;;11.60;;
3085;SDS011;52812;48.960;9.108;2022-10-20T02:28:30;18.73;;;11.50;;
3085;SDS011;52812;48.960;9.108;2022-10-20T02:30:59;18.97;;;11.53;;
3085;SDS011;52812;48.960;9.108;2022-10-20T02:33:25;17.10;;;11.30;;
3085;SDS011;52812;48.960;9.108;2022-10-20T02:35:56;22.20;;;11.47;;
3085;SDS011;52812;48.960;9.108;2022-10-20T02:38:23;19.50;;;10.57;;
3085;SDS011;52812;48.960;9.108;2022-10-20T02:40:49;18.50;;;10.87;;
3085;SDS011;52812;48.960;9.108;2022-10-20T02:43:14;16.30;;;10.50;;
3085;SDS011;52812;48.960;9.108;2022-10-20T02:45:40;18.50;;;11.03;;
3085;SDS011;52812;48.960;9.108;2022-10-20T02:48:06;20.50;;;10.77;;
3085;SDS011;52812;48.960;9.108;2022-10-20T02:50:33;17.63;;;11.07;;
3085;SDS011;52812;48.960;9.108;2022-10-20T02:53:01;18.80;;;11.07;;
3085;SDS011;52812;48.960;9.108;2022-10-20T02:55:27;22.27;;;12.00;;
3085;SDS011;52812;48.960;9.108;2022-10-20T02:57:53;19.23;;;11.57;;
3085;SDS011;52812;48.960;9.108;2022-10-20T03:00:19;18.20;;;10.97;;
3085;SDS011;52812;48.960;9.108;2022-10-20T03:02:45;17.90;;;10.23;;
3085;SDS011;52812;48.960;9.108;2022-10-20T03:05:11;19.80;;;11.00;;
3085;SDS011;52812;48.960;9.108;2022-10-20T03:07:37;17.10;;;11.17;;
3085;SDS011;52812;48.960;9.108;2022-10-20T03:10:03;16.90;;;11.07;;
3085;SDS011;52812;48.960;9.108;2022-10-20T03:12:29;19.43;;;11.67;;
3085;SDS011;52812;48.960;9.108;2022-10-20T03:14:54;16.20;;;10.30;;
3085;SDS011;52812;48.960;9.108;2022-10-20T03:17:20;19.57;;;11.63;;
3085;SDS011;52812;48.960;9.108;2022-10-20T03:19:46;16.83;;;10.53;;
3085;SDS011;52812;48.960;9.108;2022-10-20T03:22:11;18.90;;;10.40;;
3085;SDS011;52812;48.960;9.108;2022-10-20T03:24:37;18.23;;;11.40;;
3085;SDS011;52812;48.960;9.108;2022-10-20T03:27:02;18.30;;;10.53;;
3085;SDS011;52812;48.960;9.108;2022-10-20T03:29:28;17.50;;;11.30;;
3085;SDS011;52812;48.960;9.108;2022-10-20T03:31:53;18.00;;;10.80;;
3085;SDS011;52812;48.960;9.108;2022-10-20T03:34:19;20.20;;;11.63;;
3085;SDS011;52812;48.960;9.108;2022-10-20T03:36:45;25.67;;;10.97;;
3085;SDS011;52812;48.960;9.108;2022-10-20T03:39:10;24.00;;;11.73;;
3085;SDS011;52812;48.960;9.108;2022-10-20T03:41:36;17.63;;;10.77;;
3085;SDS011;52812;48.960;9.108;2022-10-20T03:44:01;17.00;;;10.93;;
3085;SDS011;52812;48.960;9.108;2022-10-20T03:46:27;20.27;;;11.67;;
3085;SDS011;52812;48.960;9.108;2022-10-20T03:48:53;17.17;;;10.57;;
3085;SDS011;52812;48.960;9.108;2022-10-20T03:51:18;19.37;;;11.63;;
3085;SDS011;52812;48.960;9.108;2022-10-20T03:53:44;16.23;;;10.60;;
3085;SDS011;52812;48.960;9.108;2022-10-20T03:56:09;19.17;;;12.07;;
3085;SDS011;52812;48.960;9.108;2022-10-20T03:58:39;28.13;;;12.07;;
3085;SDS011;52812;48.960;9.108;2022-10-20T04:01:05;16.93;;;10.40;;
3085;SDS011;52812;48.960;9.108;2022-10-20T04:03:33;18.73;;;11.37;;
3085;SDS011;52812;48.960;9.108;2022-10-20T04:05:58;17.30;;;11.07;;
3085;SDS011;52812;48.960;9.108;2022-10-20T04:08:24;21.83;;;12.90;;
3085;SDS011;52812;48.960;9.108;2022-10-20T04:10:50;19.17;;;11.43;;
3085;SDS011;52812;48.960;9.108;2022-10-20T04:13:15;21.40;;;11.30;;
3085;SDS011;52812;48.960;9.108;2022-10-20T04:15:41;21.23;;;11.27;;
3085;SDS011;52812;48.960;9.108;2022-10-20T04:18:07;19.97;;;11.40;;
3085;SDS011;52812;48.960;9.108;2022-10-20T04:20:32;23.50;;;11.97;;
3085;SDS011;52812;48.960;9.108;2022-10-20T04:22:58;21.70;;;11.80;;
3085;SDS011;52812;48.960;9.108;2022-10-20T04:25:23;22.17;;;11.07;;
3085;SDS011;52812;48.960;9.108;2022-10-20T04:27:49;21.07;;;12.67;;
3085;SDS011;52812;48.960;9.108;2022-10-20T04:30:14;19.33;;;11.00;;
3085;SDS011;52812;48.960;9.108;2022-10-20T04:32:40;19.50;;;12.40;;
3085;SDS011;52812;48.960;9.108;2022-10-20T04:35:06;18.90;;;12.00;;
3085;SDS011;52812;48.960;9.108;2022-10-20T04:37:32;24.07;;;11.97;;
3085;SDS011;52812;48.960;9.108;2022-10-20T04:39:57;20.70;;;12.13;;
3085;SDS011;52812;48.960;9.108;2022-10-20T04:42:23;22.53;;;13.03;;
3085;SDS011;52812;48.960;9.108;2022-10-20T04:44:48;22.83;;;12.30;;
3085;SDS011;52812;48.960;9.108;2022-10-20T04:47:14;20.27;;;12.53;;
3085;SDS011;52812;48.960;9.108;2022-10-20T04:49:40;20.63;;;12.10;;
3085;SDS011;52812;48.960;9.108;2022-10-20T04:52:05;23.03;;;13.40;;
3085;SDS011;52812;48.960;9.108;2022-10-20T04:54:31;19.70;;;12.33;;
3085;SDS011;52812;48.960;9.108;2022-10-20T04:56:57;20.50;;;11.83;;
3085;SDS011;52812;48.960;9.108;2022-10-20T04:59:22;21.27;;;12.37;;
3085;SDS011;52812;48.960;9.108;2022-10-20T05:01:48;19.80;;;12.10;;
3085;SDS011;52812;48.960;9.108;2022-10-20T05:04:13;19.17;;;11.13;;
3085;SDS011;52812;48.960;9.108;2022-10-20T05:06:45;16.80;;;10.77;;
3085;SDS011;52812;48.960;9.108;2022-10-20T05:09:12;19.80;;;11.73;;
3085;SDS011;52812;48.960;9.108;2022-10-20T05:11:39;21.00;;;11.17;;
3085;SDS011;52812;48.960;9.108;2022-10-20T05:14:05;16.97;;;10.97;;
3085;SDS011;52812;48.960;9.108;2022-10-20T05:16:31;22.97;;;11.70;;
3085;SDS011;52812;48.960;9.108;2022-10-20T05:18:57;20.60;;;13.17;;
3085;SDS011;52812;48.960;9.108;2022-10-20T05:21:24;19.53;;;11.47;;
3085;SDS011;52812;48.960;9.108;2022-10-20T05:23:56;24.93;;;12.50;;
3085;SDS011;52812;48.960;9.108;2022-10-20T05:26:22;24.30;;;12.80;;
3085;SDS011;52812;48.960;9.108;2022-10-20T05:28:49;22.57;;;12.10;;
3085;SDS011;52812;48.960;9.108;2022-10-20T05:31:16;22.03;;;12.60;;
3085;SDS011;52812;48.960;9.108;2022-10-20T05:33:48;21.60;;;12.77;;
3085;SDS011;52812;48.960;9.108;2022-10-20T05:36:15;22.73;;;12.97;;
3085;SDS011;52812;48.960;9.108;2022-10-20T05:38:43;23.70;;;12.93;;
3085;SDS011;52812;48.960;9.108;2022-10-20T05:41:10;25.40;;;14.80;;
3085;SDS011;52812;48.960;9.108;2022-10-20T05:43:38;23.50;;;14.13;;
3085;SDS011;52812;48.960;9.108;2022-10-20T05:46:03;23.27;;;13.20;;
3085;SDS011;52812;48.960;9.108;2022-10-20T05:48:29;23.10;;;13.73;;
3085;SDS011;52812;48.960;9.108;2022-10-20T05:51:04;25.63;;;14.30;;
3085;SDS011;52812;48.960;9.108;2022-10-20T05:53:34;26.13;;;14.00;;
3085;SDS011;52812;48.960;9.108;2022-10-20T05:56:03;27.13;;;14.80;;
3085;SDS011;52812;48.960;9.108;2022-10-20T05:58:34;26.17;;;14.47;;
3085;SDS011;52812;48.960;9.108;2022-10-20T06:01:04;25.80;;;13.87;;
3085;SDS011;52812;48.960;9.108;2022-10-20T06:03:31;28.07;;;14.77;;
3085;SDS011;52812;48.960;9.108;2022-10-20T06:05:57;28.33;;;14.50;;
3085;SDS011;52812;48.960;9.108;2022-10-20T06:08:23;25.70;;;14.50;;
3085;SDS011;52812;48.960;9.108;2022-10-20T06:10:49;25.80;;;13.57;;
3085;SDS011;52812;48.960;9.108;2022-10-20T06:13:15;24.73;;;14.50;;
3085;SDS011;52812;48.960;9.108;2022-10-20T06:15:40;23.73;;;13.57;;
3085;SDS011;52812;48.960;9.108;2022-10-20T06:18:06;26.43;;;13.80;;
3085;SDS011;52812;48.960;9.108;2022-10-20T06:20:31;22.80;;;13.37;;
3085;SDS011;52812;48.960;9.108;2022-10-20T06:22:57;23.53;;;12.80;;
3085;SDS011;52812;48.960;9.108;2022-10-20T06:25:22;24.33;;;14.27;;
3085;SDS011;52812;48.960;9.108;2022-10-20T06:27:48;19.27;;;12.60;;
3085;SDS011;52812;48.960;9.108;2022-10-20T06:30:13;24.17;;;13.50;;
3085;SDS011;52812;48.960;9.108;2022-10-20T06:32:39;24.03;;;13.50;;
3085;SDS011;52812;48.960;9.108;2022-10-20T06:35:05;24.07;;;13.63;;
3085;SDS011;52812;48.960;9.108;2022-10-20T06:37:30;24.37;;;13.43;;
3085;SDS011;52812;48.960;9.108;2022-10-20T06:39:57;23.93;;;12.90;;
3085;SDS011;52812;48.960;9.108;2022-10-20T06:42:22;27.20;;;12.53;;
3085;SDS011;52812;48.960;9.108;2022-10-20T06:44:48;22.93;;;12.60;;
3085;SDS011;52812;48.960;9.108;2022-10-20T06:47:14;21.77;;;13.00;;
3085;SDS011;52812;48.960;9.108;2022-10-20T06:49:39;23.50;;;12.87;;
3085;SDS011;52812;48.960;9.108;2022-10-20T06:52:05;21.70;;;13.47;;
3085;SDS011;52812;48.960;9.108;2022-10-20T06:54:30;19.87;;;12.57;;
3085;SDS011;52812;48.960;9.108;2022-10-20T06:56:56;21.40;;;11.80;;
3085;SDS011;52812;48.960;9.108;2022-10-20T06:59:22;20.77;;;12.13;;
3085;SDS011;52812;48.960;9.108;2022-10-20T07:01:47;21.30;;;11.97;;
3085;SDS011;52812;48.960;9.108;2022-10-20T07:04:13;23.07;;;12.50;;
3085;SDS011;52812;48.960;9.108;2022-10-20T07:06:41;20.50;;;11.67;;
3085;SDS011;52812;48.960;9.108;2022-10-20T07:09:10;24.77;;;11.57;;
3085;SDS011;52812;48.960;9.108;2022-10-20T07:11:39;23.70;;;11.60;;
3085;SDS011;52812;48.960;9.108;2022-10-20T07:14:05;25.53;;;11.70;;
3085;SDS011;52812;48.960;9.108;2022-10-20T07:16:32;19.20;;;11.90;;
3085;SDS011;52812;48.960;9.108;2022-10-20T07:18:58;18.43;;;12.17;;
3085;SDS011;52812;48.960;9.108;2022-10-20T07:21:26;16.70;;;11.27;;
3085;SDS011;52812;48.960;9.108;2022-10-20T07:23:53;17.80;;;10.97;;
3085;SDS011;52812;48.960;9.108;2022-10-20T07:26:26;17.00;;;10.57;;
3085;SDS011;52812;48.960;9.108;2022-10-20T07:28:55;17.33;;;9.93;;
3085;SDS011;52812;48.960;9.108;2022-10-20T07:31:23;16.30;;;11.17;;
3085;SDS011;52812;48.960;9.108;2022-10-20T07:34:00;14.77;;;10.27;;
3085;SDS011;52812;48.960;9.108;2022-10-20T07:36:27;14.60;;;9.80;;
3085;SDS011;52812;48.960;9.108;2022-10-20T07:38:56;15.57;;;10.17;;
3085;SDS011;52812;48.960;9.108;2022-10-20T07:41:23;16.00;;;10.13;;
3085;SDS011;52812;48.960;9.108;2022-10-20T07:43:50;15.50;;;10.30;;
3085;SDS011;52812;48.960;9.108;2022-10-20T07:46:16;16.10;;;10.10;;
3085;SDS011;52812;48.960;9.108;2022-10-20T07:48:42;13.33;;;9.40;;
3085;SDS011;52812;48.960;9.108;2022-10-20T07:53:46;21.53;;;10.20;;
3085;SDS011;52812;48.960;9.108;2022-10-20T07:56:12;12.90;;;8.40;;
3085;SDS011;52812;48.960;9.108;2022-10-20T07:58:38;12.07;;;9.40;;
3085;SDS011;52812;48.960;9.108;2022-10-20T08:01:04;13.20;;;9.07;;
3085;SDS011;52812;48.960;9.108;2022-10-20T08:03:30;12.80;;;9.57;;
3085;SDS011;52812;48.960;9.108;2022-10-20T08:05:56;12.47;;;8.60;;
3085;SDS011;52812;48.960;9.108;2022-10-20T08:08:22;11.53;;;8.43;;
3085;SDS011;52812;48.960;9.108;2022-10-20T08:10:48;13.10;;;9.10;;
3085;SDS011;52812;48.960;9.108;2022-10-20T08:13:13;16.13;;;9.10;;
3085;SDS011;52812;48.960;9.108;2022-10-20T08:15:39;13.00;;;9.20;;
3085;SDS011;52812;48.960;9.108;2022-10-20T08:18:05;12.43;;;8.20;;
3085;SDS011;52812;48.960;9.108;2022-10-20T08:20:31;11.63;;;8.50;;
3085;SDS011;52812;48.960;9.108;2022-10-20T08:22:57;14.30;;;8.50;;
3085;SDS011;52812;48.960;9.108;2022-10-20T08:25:23;12.50;;;8.50;;
3085;SDS011;52812;48.960;9.108;2022-10-20T08:27:49;10.73;;;8.47;;
3085;SDS011;52812;48.960;9.108;2022-10-20T08:30:14;10.00;;;7.20;;
3085;SDS011;52812;48.960;9.108;2022-10-20T08:32:40;12.87;;;8.10;;
3085;SDS011;52812;48.960;9.108;2022-10-20T08:35:06;10.60;;;7.60;;
3085;SDS011;52812;48.960;9.108;2022-10-20T08:37:32;9.70;;;7.37;;
3085;SDS011;52812;48.960;9.108;2022-10-20T08:40:00;11.13;;;8.30;;
3085;SDS011;52812;48.960;9.108;2022-10-20T08:42:28;11.70;;;8.87;;
3085;SDS011;52812;48.960;9.108;2022-10-20T08:45:01;13.13;;;7.80;;
3085;SDS011;52812;48.960;9.108;2022-10-20T08:47:31;10.50;;;7.50;;
3085;SDS011;52812;48.960;9.108;2022-10-20T08:50:02;9.73;;;7.13;;
3085;SDS011;52812;48.960;9.108;2022-10-20T08:52:30;9.83;;;7.50;;
3085;SDS011;52812;48.960;9.108;2022-10-20T08:54:56;9.23;;;7.20;;
3085;SDS011;52812;48.960;9.108;2022-10-20T08:59:51;10.10;;;7.50;;
3085;SDS011;52812;48.960;9.108;2022-10-20T09:02:18;10.33;;;7.33;;
3085;SDS011;52812;48.960;9.108;2022-10-20T09:04:49;9.73;;;7.63;;
3085;SDS011;52812;48.960;9.108;2022-10-20T09:09:53;10.70;;;7.47;;
3085;SDS011;52812;48.960;9.108;2022-10-20T09:12:42;9.50;;;6.87;;
3085;SDS011;52812;48.960;9.108;2022-10-20T09:15:10;7.53;;;6.33;;
3085;SDS011;52812;48.960;9.108;2022-10-20T09:17:39;9.40;;;6.67;;
3085;SDS011;52812;48.960;9.108;2022-10-20T09:20:26;8.10;;;6.13;;
3085;SDS011;52812;48.960;9.108;2022-10-20T09:22:57;8.97;;;6.87;;
3085;SDS011;52812;48.960;9.108;2022-10-20T09:25:23;12.27;;;6.60;;
3085;SDS011;52812;48.960;9.108;2022-10-20T09:27:51;8.23;;;7.00;;
3085;SDS011;52812;48.960;9.108;2022-10-20T09:32:50;7.23;;;5.83;;
3085;SDS011;52812;48.960;9.108;2022-10-20T09:35:21;7.40;;;5.50;;
3085;SDS011;52812;48.960;9.108;2022-10-20T09:40:52;6.63;;;5.67;;
3085;SDS011;52812;48.960;9.108;2022-10-20T09:43:22;6.10;;;5.50;;
3085;SDS011;52812;48.960;9.108;2022-10-20T09:45:57;7.70;;;5.97;;
3085;SDS011;52812;48.960;9.108;2022-10-20T09:48:28;7.13;;;5.63;;
3085;SDS011;52812;48.960;9.108;2022-10-20T09:51:03;7.77;;;5.77;;
3085;SDS011;52812;48.960;9.108;2022-10-20T09:53:39;10.00;;;5.73;;
3085;SDS011;52812;48.960;9.108;2022-10-20T09:56:39;6.03;;;5.20;;
3085;SDS011;52812;48.960;9.108;2022-10-20T09:59:07;9.00;;;5.70;;
3085;SDS011;52812;48.960;9.108;2022-10-20T10:01:52;8.27;;;5.20;;
3085;SDS011;52812;48.960;9.108;2022-10-20T10:07:05;7.40;;;5.60;;
3085;SDS011;52812;48.960;9.108;2022-10-20T10:09:54;7.40;;;5.63;;
3085;SDS011;52812;48.960;9.108;2022-10-20T10:12:23;9.47;;;5.80;;
3085;SDS011;52812;48.960;9.108;2022-10-20T10:17:27;6.20;;;5.20;;
3085;SDS011;52812;48.960;9.108;2022-10-20T10:19:58;7.70;;;5.00;;
3085;SDS011;52812;48.960;9.108;2022-10-20T10:22:25;8.20;;;5.40;;
3085;SDS011;52812;48.960;9.108;2022-10-20T10:24:53;6.43;;;4.73;;
3085;SDS011;52812;48.960;9.108;2022-10-20T10:27:26;5.93;;;5.33;;
3085;SDS011;52812;48.960;9.108;2022-10-20T10:29:54;6.40;;;5.70;;
3085;SDS011;52812;48.960;9.108;2022-10-20T10:32:44;6.70;;;5.10;;
3085;SDS011;52812;48.960;9.108;2022-10-20T10:35:24;9.60;;;6.07;;
3085;SDS011;52812;48.960;9.108;2022-10-20T10:37:57;7.10;;;6.10;;
3085;SDS011;52812;48.960;9.108;2022-10-20T10:40:44;8.70;;;6.37;;
3085;SDS011;52812;48.960;9.108;2022-10-20T10:43:35;8.30;;;6.07;;
3085;SDS011;52812;48.960;9.108;2022-10-20T10:46:04;8.27;;;6.20;;
3085;SDS011;52812;48.960;9.108;2022-10-20T10:57:12;7.77;;;6.30;;
3085;SDS011;52812;48.960;9.108;2022-10-20T11:00:08;7.10;;;5.33;;
3085;SDS011;52812;48.960;9.108;2022-10-20T11:02:57;6.53;;;5.53;;
3085;SDS011;52812;48.960;9.108;2022-10-20T11:05:56;7.57;;;5.60;;
3085;SDS011;52812;48.960;9.108;2022-10-20T11:08:47;7.60;;;6.17;;
3085;SDS011;52812;48.960;9.108;2022-10-20T11:11:23;8.93;;;6.60;;
3085;SDS011;52812;48.960;9.108;2022-10-20T11:19:33;9.37;;;6.00;;
3085;SDS011;52812;48.960;9.108;2022-10-20T11:27:37;6.63;;;5.20;;
3085;SDS011;52812;48.960;9.108;2022-10-20T11:30:05;7.17;;;5.23;;
3085;SDS011;52812;48.960;9.108;2022-10-20T11:38:01;11.53;;;5.80;;
3085;SDS011;52812;48.960;9.108;2022-10-20T11:40:40;8.27;;;4.53;;
3085;SDS011;52812;48.960;9.108;2022-10-20T11:48:51;7.00;;;5.30;;
3085;SDS011;52812;48.960;9.108;2022-10-20T12:05:00;7.13;;;4.97;;
3085;SDS011;52812;48.960;9.108;2022-10-20T12:10:54;10.30;;;5.07;;
3085;SDS011;52812;48.960;9.108;2022-10-20T12:13:30;7.03;;;4.93;;
3085;SDS011;52812;48.960;9.108;2022-10-20T12:16:01;7.33;;;4.67;;
3085;SDS011;52812;48.960;9.108;2022-10-20T12:29:00;8.00;;;4.83;;
3085;SDS011;52812;48.960;9.108;2022-10-20T12:34:54;8.90;;;4.90;;
3085;SDS011;52812;48.960;9.108;2022-10-20T12:39:47;5.43;;;4.50;;
3085;SDS011;52812;48.960;9.108;2022-10-20T12:44:53;5.03;;;4.40;;
3085;SDS011;52812;48.960;9.108;2022-10-20T12:47:24;9.60;;;4.73;;
3085;SDS011;52812;48.960;9.108;2022-10-20T12:50:06;6.50;;;4.93;;
3085;SDS011;52812;48.960;9.108;2022-10-20T12:52:50;6.00;;;4.90;;
3085;SDS011;52812;48.960;9.108;2022-10-20T12:55:17;6.43;;;4.53;;
3085;SDS011;52812;48.960;9.108;2022-10-20T13:05:59;6.77;;;5.07;;
3085;SDS011;52812;48.960;9.108;2022-10-20T13:08:27;8.10;;;5.40;;
3085;SDS011;52812;48.960;9.108;2022-10-20T13:10:54;6.73;;;5.77;;
3085;SDS011;52812;48.960;9.108;2022-10-20T13:15:51;7.80;;;5.40;;
3085;SDS011;52812;48.960;9.108;2022-10-20T13:18:26;6.53;;;5.57;;
3085;SDS011;52812;48.960;9.108;2022-10-20T13:23:47;6.90;;;5.33;;
3085;SDS011;52812;48.960;9.108;2022-10-20T13:26:37;11.50;;;6.20;;
3085;SDS011;52812;48.960;9.108;2022-10-20T13:29:33;8.70;;;5.60;;
3085;SDS011;52812;48.960;9.108;2022-10-20T13:32:08;7.07;;;5.77;;
3085;SDS011;52812;48.960;9.108;2022-10-20T13:35:10;8.67;;;6.03;;
3085;SDS011;52812;48.960;9.108;2022-10-20T13:37:51;9.20;;;5.20;;
3085;SDS011;52812;48.960;9.108;2022-10-20T13:40:41;6.93;;;5.37;;
3085;SDS011;52812;48.960;9.108;2022-10-20T13:43:22;9.90;;;6.17;;
3085;SDS011;52812;48.960;9.108;2022-10-20T13:51:49;8.80;;;6.10;;
3085;SDS011;52812;48.960;9.108;2022-10-20T13:54:37;8.07;;;6.00;;
3085;SDS011;52812;48.960;9.108;2022-10-20T13:57:12;6.77;;;6.00;;
3085;SDS011;52812;48.960;9.108;2022-10-20T14:02:59;8.50;;;5.50;;
3085;SDS011;52812;48.960;9.108;2022-10-20T14:05:29;7.77;;;5.00;;
3085;SDS011;52812;48.960;9.108;2022-10-20T14:08:06;6.57;;;5.87;;
3085;SDS011;52812;48.960;9.108;2022-10-20T14:13:23;9.93;;;5.30;;
3085;SDS011;52812;48.960;9.108;2022-10-20T14:15:51;7.87;;;5.67;;
3085;SDS011;52812;48.960;9.108;2022-10-20T14:18:29;6.93;;;5.97;;
3085;SDS011;52812;48.960;9.108;2022-10-20T14:21:00;8.77;;;6.17;;
3085;SDS011;52812;48.960;9.108;2022-10-20T14:23:30;6.87;;;5.80;;
3085;SDS011;52812;48.960;9.108;2022-10-20T14:26:03;10.33;;;5.87;;
3085;SDS011;52812;48.960;9.108;2022-10-20T14:28:32;7.93;;;5.60;;
3085;SDS011;52812;48.960;9.108;2022-10-20T14:30:59;7.53;;;5.60;;
3085;SDS011;52812;48.960;9.108;2022-10-20T14:33:26;8.53;;;6.90;;
3085;SDS011;52812;48.960;9.108;2022-10-20T14:35:54;8.30;;;6.10;;
3085;SDS011;52812;48.960;9.108;2022-10-20T14:38:22;10.77;;;6.30;;
3085;SDS011;52812;48.960;9.108;2022-10-20T14:40:54;6.80;;;6.07;;
3085;SDS011;52812;48.960;9.108;2022-10-20T14:46:03;12.67;;;8.30;;
3085;SDS011;52812;48.960;9.108;2022-10-20T14:48:33;16.73;;;8.53;;
3085;SDS011;52812;48.960;9.108;2022-10-20T14:51:25;9.97;;;7.07;;
3085;SDS011;52812;48.960;9.108;2022-10-20T14:56:56;8.20;;;6.53;;
3085;SDS011;52812;48.960;9.108;2022-10-20T15:00:22;7.80;;;6.53;;
3085;SDS011;52812;48.960;9.108;2022-10-20T15:02:46;9.03;;;6.63;;
3085;SDS011;52812;48.960;9.108;2022-10-20T15:05:21;9.83;;;6.80;;
3085;SDS011;52812;48.960;9.108;2022-10-20T15:07:50;17.40;;;8.47;;
3085;SDS011;52812;48.960;9.108;2022-10-20T15:10:18;10.70;;;6.63;;
3085;SDS011;52812;48.960;9.108;2022-10-20T15:12:46;11.93;;;7.00;;
3085;SDS011;52812;48.960;9.108;2022-10-20T15:17:46;11.73;;;7.00;;
3085;SDS011;52812;48.960;9.108;2022-10-20T15:22:55;9.70;;;7.70;;
3085;SDS011;52812;48.960;9.108;2022-10-20T15:25:22;13.37;;;7.67;;
3085;SDS011;52812;48.960;9.108;2022-10-20T15:27:49;8.73;;;6.90;;
3085;SDS011;52812;48.960;9.108;2022-10-20T15:30:16;8.83;;;6.97;;
3085;SDS011;52812;48.960;9.108;2022-10-20T15:32:44;13.67;;;6.80;;
3085;SDS011;52812;48.960;9.108;2022-10-20T15:35:13;8.70;;;6.60;;
3085;SDS011;52812;48.960;9.108;2022-10-20T15:37:52;9.90;;;6.90;;
3085;SDS011;52812;48.960;9.108;2022-10-20T15:40:19;12.50;;;6.77;;
3085;SDS011;52812;48.960;9.108;2022-10-20T15:42:46;11.10;;;6.43;;
3085;SDS011;52812;48.960;9.108;2022-10-20T15:45:13;7.33;;;6.30;;
3085;SDS011;52812;48.960;9.108;2022-10-20T15:47:46;8.60;;;6.60;;
3085;SDS011;52812;48.960;9.108;2022-10-20T15:50:13;10.00;;;7.60;;
3085;SDS011;52812;48.960;9.108;2022-10-20T15:52:39;10.07;;;7.60;;
3085;SDS011;52812;48.960;9.108;2022-10-20T15:55:21;10.87;;;7.20;;
3085;SDS011;52812;48.960;9.108;2022-10-20T15:57:52;11.13;;;7.00;;
3085;SDS011;52812;48.960;9.108;2022-10-20T16:00:19;8.37;;;6.97;;
3085;SDS011;52812;48.960;9.108;2022-10-20T16:02:47;11.00;;;7.97;;
3085;SDS011;52812;48.960;9.108;2022-10-20T16:05:13;9.10;;;6.80;;
3085;SDS011;52812;48.960;9.108;2022-10-20T16:07:39;11.30;;;7.33;;
3085;SDS011;52812;48.960;9.108;2022-10-20T16:10:05;10.63;;;7.50;;
3085;SDS011;52812;48.960;9.108;2022-10-20T16:12:31;12.33;;;7.50;;
3085;SDS011;52812;48.960;9.108;2022-10-20T16:14:57;10.27;;;6.73;;
3085;SDS011;52812;48.960;9.108;2022-10-20T16:17:23;11.90;;;7.20;;
3085;SDS011;52812;48.960;9.108;2022-10-20T16:19:48;12.17;;;7.63;;
3085;SDS011;52812;48.960;9.108;2022-10-20T16:22:14;11.50;;;7.00;;
3085;SDS011;52812;48.960;9.108;2022-10-20T16:24:39;12.83;;;8.77;;
3085;SDS011;52812;48.960;9.108;2022-10-20T16:27:05;11.57;;;7.67;;
3085;SDS011;52812;48.960;9.108;2022-10-20T16:29:31;10.77;;;6.90;;
3085;SDS011;52812;48.960;9.108;2022-10-20T16:31:57;10.33;;;6.50;;
3085;SDS011;52812;48.960;9.108;2022-10-20T16:34:23;12.87;;;6.40;;
3085;SDS011;52812;48.960;9.108;2022-10-20T16:36:49;7.20;;;6.30;;
3085;SDS011;52812;48.960;9.108;2022-10-20T16:39:15;10.20;;;7.00;;
3085;SDS011;52812;48.960;9.108;2022-10-20T16:41:44;9.50;;;6.70;;
3085;SDS011;52812;48.960;9.108;2022-10-20T16:44:10;8.27;;;6.30;;
3085;SDS011;52812;48.960;9.108;2022-10-20T16:46:36;14.23;;;7.03;;
3085;SDS011;52812;48.960;9.108;2022-10-20T16:49:01;11.67;;;7.27;;
3085;SDS011;52812;48.960;9.108;2022-10-20T16:51:27;9.70;;;6.40;;
3085;SDS011;52812;48.960;9.108;2022-10-20T16:53:53;12.43;;;6.83;;
3085;SDS011;52812;48.960;9.108;2022-10-20T16:56:19;12.90;;;9.07;;
3085;SDS011;52812;48.960;9.108;2022-10-20T16:58:45;12.30;;;7.33;;
3085;SDS011;52812;48.960;9.108;2022-10-20T17:01:11;14.07;;;7.20;;
3085;SDS011;52812;48.960;9.108;2022-10-20T17:03:45;11.90;;;7.40;;
3085;SDS011;52812;48.960;9.108;2022-10-20T17:06:12;10.73;;;7.50;;
3085;SDS011;52812;48.960;9.108;2022-10-20T17:08:40;13.13;;;7.70;;
3085;SDS011;52812;48.960;9.108;2022-10-20T17:11:07;8.87;;;7.20;;
3085;SDS011;52812;48.960;9.108;2022-10-20T17:13:40;8.33;;;7.53;;
3085;SDS011;52812;48.960;9.108;2022-10-20T17:16:07;11.50;;;8.30;;
3085;SDS011;52812;48.960;9.108;2022-10-20T17:18:37;9.87;;;7.53;;
3085;SDS011;52812;48.960;9.108;2022-10-20T17:21:14;12.10;;;7.57;;
3085;SDS011;52812;48.960;9.108;2022-10-20T17:23:43;12.17;;;9.53;;
3085;SDS011;52812;48.960;9.108;2022-10-20T17:42:52;13.40;;;9.27;;
3085;SDS011;52812;48.960;9.108;2022-10-20T17:45:35;15.53;;;9.33;;